createdAt,value
2022-12-14T04:04:35.779Z,-2.24
2022-12-14T04:07:56.870Z,-2.23
2022-12-14T04:11:20.952Z,-2.21
2022-12-14T04:14:46.915Z,-2.18
2022-12-14T04:18:12.144Z,-2.12
2022-12-14T04:21:32.210Z,-2.13
2022-12-14T04:24:57.988Z,-2.16
2022-12-14T04:28:34.525Z,-2.25
2022-12-14T04:31:50.463Z,-2.24
2022-12-14T04:35:06.694Z,-2.25
2022-12-14T04:38:23.703Z,-2.20
2022-12-14T04:41:37.705Z,-2.13
2022-12-14T04:44:53.461Z,-2.05
2022-12-14T04:48:14.441Z,-1.99
2022-12-14T04:51:31.440Z,-1.96
2022-12-14T04:54:47.732Z,-1.91
2022-12-14T04:58:02.275Z,-2.03
2022-12-14T05:01:27.294Z,-2.06
2022-12-14T05:04:55.244Z,-2.05
2022-12-14T05:08:12.820Z,-2.10
2022-12-14T05:11:52.665Z,-2.05
2022-12-14T05:15:07.253Z,-2.17
2022-12-14T05:18:18.312Z,-2.27
2022-12-14T05:21:40.090Z,-2.33
2022-12-14T05:24:50.894Z,-2.44
2022-12-14T05:28:02.814Z,-2.44
2022-12-14T05:31:13.641Z,-2.44
2022-12-14T05:34:25.522Z,-2.44
2022-12-14T05:37:37.314Z,-2.47
2022-12-14T05:40:48.048Z,-2.47
2022-12-14T05:43:59.964Z,-2.36
2022-12-14T05:47:10.806Z,-2.28
2022-12-14T05:50:21.677Z,-2.27
2022-12-14T05:53:32.633Z,-2.22
2022-12-14T05:56:43.416Z,-2.33
2022-12-14T05:59:55.307Z,-2.27
2022-12-14T07:39:47.029Z,-2.36
2022-12-14T07:42:57.882Z,-2.28
2022-12-14T07:46:10.282Z,-2.23
2022-12-14T07:49:20.966Z,-2.25
2022-12-14T07:52:37.292Z,-2.29
2022-12-14T07:55:49.637Z,-2.48
2022-12-14T07:59:01.429Z,-2.59
2022-12-14T08:02:12.770Z,-2.52
2022-12-14T08:05:23.534Z,-2.43
2022-12-14T08:08:34.208Z,-2.39
2022-12-14T08:11:46.718Z,-2.36
2022-12-14T08:14:57.309Z,-2.30
2022-12-14T08:18:08.410Z,-2.35
2022-12-14T08:21:21.900Z,-2.29
2022-12-14T08:24:32.550Z,-2.28
2022-12-14T08:27:44.460Z,-2.29
2022-12-14T08:30:56.216Z,-2.25
2022-12-14T08:34:06.918Z,-2.24
2022-12-14T08:37:17.441Z,-2.27
2022-12-14T08:40:28.603Z,-2.22
2022-12-14T08:43:41.666Z,-2.23
2022-12-14T08:46:52.402Z,-2.23
2022-12-14T08:50:03.268Z,-2.33
2022-12-14T08:53:13.781Z,-2.38
2022-12-14T08:56:26.495Z,-2.45
2022-12-14T09:00:00.701Z,-2.41
2022-12-14T09:03:08.939Z,-2.48
2022-12-14T09:06:24.712Z,-2.41
2022-12-14T09:09:37.318Z,-2.22
2022-12-14T09:12:48.534Z,-2.08
2022-12-14T09:16:02.373Z,-1.97
2022-12-14T09:19:13.254Z,-1.87
2022-12-14T09:22:24.566Z,-1.76
2022-12-14T09:25:35.632Z,-1.81
2022-12-14T09:28:48.952Z,-1.96
2022-12-14T09:32:01.141Z,-1.95
2022-12-14T09:35:12.496Z,-1.92
2022-12-14T09:38:23.741Z,-2.01
2022-12-14T09:41:51.785Z,-2.08
2022-12-14T09:45:17.618Z,-2.09
2022-12-14T09:48:30.322Z,-1.93
2022-12-14T09:51:41.604Z,-1.93
2022-12-14T09:54:52.603Z,-1.92
2022-12-14T09:58:08.783Z,-1.89
2022-12-14T10:01:43.558Z,-1.77
2022-12-14T10:05:06.874Z,-1.75
2022-12-14T10:08:25.234Z,-1.62
2022-12-14T10:11:44.366Z,-1.55
2022-12-14T10:15:05.488Z,-1.57
2022-12-14T10:18:58.411Z,-1.61
2022-12-14T10:22:12.228Z,-1.46
2022-12-14T10:25:26.212Z,-1.44
2022-12-14T10:28:44.874Z,-1.53
2022-12-14T10:32:04.650Z,-1.48
2022-12-14T10:35:16.168Z,-1.53
2022-12-14T10:38:39.713Z,-1.54
2022-12-14T10:41:58.766Z,-1.49
2022-12-14T10:45:40.217Z,-1.71
2022-12-14T10:48:57.865Z,-1.88
2022-12-14T10:52:15.020Z,-1.91
2022-12-14T10:55:35.477Z,-1.96
2022-12-14T10:58:46.355Z,-2.03
2022-12-14T11:02:04.119Z,-1.98
2022-12-14T11:05:24.172Z,-1.97
2022-12-14T11:08:41.045Z,-1.87
2022-12-14T11:11:59.529Z,-1.74
2022-12-14T11:15:25.772Z,-1.72
2022-12-14T11:18:36.382Z,-1.83
2022-12-14T11:21:50.104Z,-1.99
2022-12-14T11:25:01.094Z,-1.93
2022-12-14T11:28:35.953Z,-1.88
2022-12-14T11:31:49.551Z,-1.87
2022-12-14T11:35:00.946Z,-1.74
2022-12-14T11:38:17.247Z,-1.52
2022-12-14T11:41:32.981Z,-1.43
2022-12-14T11:44:46.082Z,-1.34
2022-12-14T11:48:12.892Z,-1.23
2022-12-14T11:51:23.514Z,-1.14
2022-12-14T11:54:35.041Z,-1.28
2022-12-14T11:57:50.326Z,-1.41
2022-12-14T12:01:06.307Z,-1.39
2022-12-14T12:04:18.882Z,-1.36
2022-12-14T12:07:33.658Z,-1.37
2022-12-14T12:10:50.225Z,-1.37
2022-12-14T12:14:02.619Z,-1.28
2022-12-14T12:17:20.417Z,-1.19
2022-12-14T12:20:35.517Z,-1.28
2022-12-14T12:23:52.322Z,-1.22
2022-12-14T12:27:11.281Z,-1.29
2022-12-14T12:30:28.378Z,-1.31
2022-12-14T12:33:45.477Z,-1.30
2022-12-14T12:37:25.180Z,-1.22
2022-12-14T12:40:32.891Z,-1.14
2022-12-14T12:43:50.522Z,-1.03
2022-12-14T12:47:24.772Z,-0.95
2022-12-14T12:50:43.318Z,-0.84
2022-12-14T12:54:02.864Z,-0.83
2022-12-14T12:57:14.278Z,-0.89
2022-12-14T13:00:26.259Z,-1.02
2022-12-14T13:03:39.880Z,-1.03
2022-12-14T13:06:54.836Z,-1.08
2022-12-14T13:10:12.905Z,-1.08
2022-12-14T13:13:25.603Z,-1.07
2022-12-14T13:16:39.786Z,-1.24
2022-12-14T13:19:54.166Z,-1.28
2022-12-14T13:23:44.211Z,-1.25
2022-12-14T13:27:01.304Z,-1.20
2022-12-14T13:30:21.605Z,-1.32
2022-12-14T13:33:46.549Z,-1.35
2022-12-14T13:37:18.121Z,-1.51
2022-12-14T13:40:44.888Z,-1.45
2022-12-14T13:44:12.449Z,-1.37
2022-12-14T13:47:26.661Z,-1.27
2022-12-14T13:50:54.237Z,-1.31
2022-12-14T13:54:21.865Z,-1.34
2022-12-14T13:57:32.707Z,-1.40
2022-12-14T14:00:52.520Z,-1.36
2022-12-14T14:04:21.476Z,-1.23
2022-12-14T14:07:50.170Z,-1.16
2022-12-14T14:11:36.433Z,-1.13
2022-12-14T14:14:53.429Z,-1.15
2022-12-14T14:18:14.313Z,-1.23
2022-12-14T14:21:32.217Z,-1.33
2022-12-14T14:24:56.499Z,-1.30
2022-12-14T14:28:06.443Z,-1.26
2022-12-14T14:31:17.221Z,-1.24
2022-12-14T14:34:37.288Z,-1.33
2022-12-14T14:37:56.596Z,-1.32
2022-12-14T14:41:17.114Z,-1.33
2022-12-14T14:44:35.998Z,-1.37
2022-12-14T14:47:56.462Z,-1.36
2022-12-14T14:51:17.213Z,-1.44
2022-12-14T14:55:10.778Z,-1.52
2022-12-14T14:58:01.743Z,-1.49
2022-12-14T15:01:21.601Z,-1.51
2022-12-14T15:04:44.673Z,-1.59
2022-12-14T15:07:56.220Z,-1.60
2022-12-14T15:11:14.793Z,-1.51
2022-12-14T15:14:35.067Z,-1.46
2022-12-14T15:17:44.572Z,-1.43
2022-12-14T15:21:00.815Z,-1.42
2022-12-14T15:24:13.881Z,-1.46
2022-12-14T15:27:27.912Z,-1.45
2022-12-14T15:30:37.565Z,-1.49
2022-12-14T15:33:48.817Z,-1.46
2022-12-14T15:36:59.656Z,-1.45
2022-12-14T15:40:13.740Z,-1.45
2022-12-14T15:43:24.534Z,-1.44
2022-12-14T15:46:38.509Z,-1.49
2022-12-14T15:49:48.013Z,-1.52
2022-12-14T15:53:07.506Z,-1.54
2022-12-14T15:56:24.337Z,-1.58
2022-12-14T15:59:36.937Z,-1.57
2022-12-14T16:02:46.554Z,-1.59
2022-12-14T16:05:56.932Z,-1.60
2022-12-14T16:09:12.866Z,-1.55
2022-12-14T16:12:28.348Z,-1.56
2022-12-14T16:15:38.041Z,-1.52
2022-12-14T16:18:50.874Z,-1.52
2022-12-14T16:22:19.868Z,-1.49
2022-12-14T16:25:32.391Z,-1.47
2022-12-14T16:28:42.306Z,-1.48
2022-12-14T16:31:51.870Z,-1.49
2022-12-14T16:35:02.340Z,-1.46
2022-12-14T16:38:14.707Z,-1.44
2022-12-14T16:41:37.363Z,-1.44
2022-12-14T16:44:46.982Z,-1.45
2022-12-14T16:48:07.596Z,-1.48
2022-12-14T16:51:38.421Z,-1.48
2022-12-14T16:55:09.819Z,-1.47
2022-12-14T16:58:20.620Z,-1.48
2022-12-14T17:01:40.525Z,-1.57
2022-12-14T17:04:50.335Z,-1.72
2022-12-14T17:08:00.170Z,-1.68
2022-12-14T17:11:13.292Z,-1.64
2022-12-14T17:14:24.069Z,-1.63
2022-12-14T17:17:37.931Z,-1.63
2022-12-14T17:20:47.444Z,-1.68
2022-12-14T17:23:57.660Z,-1.76
2022-12-14T17:27:07.239Z,-1.91
2022-12-14T17:30:22.565Z,-1.96
2022-12-14T17:33:32.738Z,-2.01
2022-12-14T17:36:42.770Z,-2.02
2022-12-14T17:39:53.061Z,-2.02
2022-12-14T17:43:02.824Z,-2.05
2022-12-14T17:46:13.624Z,-2.09
2022-12-14T17:49:34.673Z,-2.14
2022-12-14T17:52:44.950Z,-2.21
2022-12-14T17:55:54.448Z,-2.25
2022-12-14T17:59:03.927Z,-2.28
2022-12-14T18:02:26.404Z,-2.29
2022-12-14T18:05:36.060Z,-2.30
2022-12-14T18:08:46.607Z,-2.35
2022-12-14T18:12:22.010Z,-2.36
2022-12-14T18:15:28.579Z,-2.38
2022-12-14T18:18:39.932Z,-2.41
2022-12-14T18:21:49.344Z,-2.44
2022-12-14T18:24:59.187Z,-2.52
2022-12-14T18:28:10.064Z,-2.60
2022-12-14T18:31:24.602Z,-2.64
2022-12-14T18:34:35.286Z,-2.71
2022-12-14T18:37:44.834Z,-2.79
2022-12-14T18:41:01.575Z,-2.92
2022-12-14T18:44:11.648Z,-3.06
2022-12-14T18:47:41.168Z,-3.13
2022-12-14T18:50:53.921Z,-3.19
2022-12-14T18:54:03.777Z,-3.26
2022-12-14T18:57:13.375Z,-3.33
2022-12-14T19:00:24.637Z,-3.43
2022-12-14T19:03:35.440Z,-3.47
2022-12-14T19:06:46.557Z,-3.58
2022-12-14T19:09:56.174Z,-3.72
2022-12-14T19:13:06.029Z,-3.78
2022-12-14T19:16:17.135Z,-3.85
2022-12-14T19:19:36.903Z,-3.87
2022-12-14T19:22:54.452Z,-3.94
2022-12-14T19:26:06.554Z,-3.97
2022-12-14T19:29:18.313Z,-4.02
2022-12-14T19:32:30.665Z,-4.06
2022-12-14T19:35:42.302Z,-4.17
2022-12-14T19:38:55.220Z,-4.26
2022-12-14T19:42:06.784Z,-4.33
2022-12-14T19:45:17.431Z,-4.34
2022-12-14T19:48:27.028Z,-4.37
2022-12-14T19:51:36.521Z,-4.33
2022-12-14T19:54:47.194Z,-4.29
2022-12-14T19:57:56.940Z,-4.30
2022-12-14T20:01:08.943Z,-4.31
2022-12-14T20:04:18.492Z,-4.30
2022-12-14T20:07:28.003Z,-4.37
2022-12-14T20:10:38.707Z,-4.44
2022-12-14T20:13:53.184Z,-4.53
2022-12-14T20:17:06.621Z,-4.54
2022-12-14T20:20:16.182Z,-4.60
2022-12-14T20:23:25.614Z,-4.75
2022-12-14T20:26:36.501Z,-4.87
2022-12-14T20:29:46.057Z,-4.92
2022-12-14T20:32:55.628Z,-4.95
2022-12-14T20:36:05.566Z,-5.00
2022-12-14T20:39:15.305Z,-4.97
2022-12-14T20:42:26.113Z,-4.93
2022-12-14T20:45:38.401Z,-4.83
2022-12-14T20:48:48.260Z,-4.74
2022-12-14T20:51:58.116Z,-4.78
2022-12-14T20:55:08.101Z,-4.78
2022-12-14T20:58:18.943Z,-4.87
2022-12-14T21:01:28.772Z,-4.84
2022-12-14T21:04:38.389Z,-4.74
2022-12-14T21:07:48.108Z,-4.66
2022-12-14T21:11:21.859Z,-4.58
2022-12-14T21:14:34.911Z,-4.58
2022-12-14T21:17:44.718Z,-4.58
2022-12-14T21:20:54.183Z,-4.76
2022-12-14T21:24:03.740Z,-4.82
2022-12-14T21:27:16.765Z,-4.67
2022-12-14T21:30:27.466Z,-4.50
2022-12-14T21:33:39.419Z,-4.37
2022-12-14T21:36:48.997Z,-4.37
2022-12-14T21:39:58.578Z,-4.34
2022-12-14T21:43:07.102Z,-4.42
2022-12-14T21:46:18.350Z,-4.59
2022-12-14T21:49:27.926Z,-4.60
2022-12-14T21:52:37.411Z,-4.59
2022-12-14T21:55:49.813Z,-4.56
2022-12-14T21:58:58.555Z,-4.57
2022-12-14T22:02:13.843Z,-4.53
2022-12-14T22:05:23.801Z,-4.53
2022-12-14T22:08:33.500Z,-4.50
2022-12-14T22:11:43.367Z,-4.40
2022-12-14T22:14:53.173Z,-4.42
2022-12-14T22:18:04.057Z,-4.41
2022-12-14T22:21:14.217Z,-4.32
2022-12-14T22:24:24.980Z,-4.21
2022-12-14T22:27:34.428Z,-4.17
2022-12-14T22:30:43.932Z,-4.15
